Airfield :
LOGIN :

Register | Disclaimer

   EN    FR    IT 

 










Legend :    VFR   Marginal VFR   IFR   Intensive IFR   Very Intensive IFR
Visi :
Ceiling :
>= 8 km
>= 3000ft
5 to 8 km
1000 to 3000 ft
1500m to 5 km
500 to 1000 ft
800 to 1500m
200 to 500 ft
< 800m
< 200 ft
Symbols :   Thunderstorms  Fog  Heavy snow  Heavy precipitations  Wind > 20 kt
SIGMETs :     Misc.  Thunderstorms  Icing  Turbulence  Mountain Waves  Volcanic Ashes






- Airport Elevation : 249 ft


EGOS - RAF Shawbury

CURRENT METAR :
  • 280720Z AUTO 06002KT 0200 FG FEW045/// BKN140/// 03/02 Q1005

EXPIRED METARs :
  • 280650Z AUTO 07002KT 9999 FEW047/// 06/05 Q1005
  • 280620Z AUTO 15005KT 9999 FEW044/// BKN051/// 06/05 Q1005
  • 280550Z AUTO 15007KT 9999 FEW035/// 06/05 Q1004
  • 280520Z AUTO 14006KT 9999 FEW051/// 06/05 Q1004
  • 280450Z AUTO 11004KT 9999 FEW063/// 06/05 Q1004

TAF TAF EGOS
Valid from the 28 at 08:00 until the 28 at 15:00 UTC


280652Z 2808/2815 16007KT 9999 SCT030
PROB30
TEMPO 2810/2815 SCT012



MET'MAP, your aeronautical weather chart ! - Copyright ORBIFLY December 2007 - Disclaimer

ORBIFLY MET'MAP TEAM :

Programming & Development : Alexandra Zaïnal
Original concept : Baudouin d'Aumeries
Technical & hardware support : Manuel Goepfert
Assistance : Marc-Olivier Méhu




SOURCES & CREDITS :

   NOAA